Terminal Aerodrome Forecast
Issued by NWS

Home | Current Version | Previous Version | Text Only | Print | Product List | Glossary Off
Versions: 1 2 3 4 5 6 7 8 9 10 11 12

000
FTUS43 KGRB 291720
TAFMTW
TAF
KMTW 291720Z 2918/3018 16008KT P6SM SCT035 BKN050
      TEMPO 3004/3007 -SHRA BKN035
     FM300700 VRB03KT P6SM VCSH SCT012 BKN035
     FM301000 VRB03KT 5SM BR VCSH SCT010 BKN035
      TEMPO 3010/3013 3SM BR BKN010
     FM301400 01005KT P6SM SCT012 BKN035=

USA.gov is the U.S. government's official web portal to all federal, state and local government web resources and services.